Terminal Aerodrome Forecast
Issued by NWS Flagstaff, AZ

Home | Current Version | Previous Version | Text Only | Print | Product List | Glossary On
Versions: 1 2 3 4 5 6 7 8 9 10 11 12 13 14 15 16
000
FTUS45 KFGZ 221700
TAFINW
TAF
KINW 221720Z 2218/2318 23011G16KT P6SM SCT060 BKN120
      TEMPO 2219/2223 VRB15G25KT 5SM -TSRA BKN060CB
     FM230300 VRB05KT P6SM FEW050=

USA.gov is the U.S. government's official web portal to all federal, state and local government web resources and services.